createdAt,value
2022-12-27T00:02:21.334Z,4.90
2022-12-27T00:04:48.147Z,4.90
2022-12-27T00:07:14.937Z,4.90
2022-12-27T00:09:42.060Z,4.90
2022-12-27T00:12:08.792Z,4.90
2022-12-27T00:14:35.535Z,4.90
2022-12-27T00:17:02.307Z,4.80
2022-12-27T00:19:29.071Z,4.80
2022-12-27T00:21:55.851Z,4.80
2022-12-27T00:24:22.696Z,4.80
2022-12-27T00:26:49.727Z,4.80
2022-12-27T00:29:16.473Z,4.70
2022-12-27T00:31:43.389Z,4.70
2022-12-27T00:34:11.238Z,4.70
2022-12-27T00:36:37.970Z,4.60
2022-12-27T00:39:04.802Z,4.50
2022-12-27T00:41:31.744Z,4.60
2022-12-27T00:43:58.526Z,4.50
2022-12-27T00:46:25.232Z,4.50
2022-12-27T00:48:52.198Z,4.50
2022-12-27T00:51:22.170Z,4.50
2022-12-27T00:53:51.048Z,4.40
2022-12-27T00:56:20.460Z,4.40
2022-12-27T00:58:47.781Z,4.30
2022-12-27T01:01:20.392Z,4.30
2022-12-27T01:03:47.500Z,4.20
2022-12-27T01:06:17.806Z,4.20
2022-12-27T01:08:45.587Z,4.20
2022-12-27T01:11:13.481Z,4.20
2022-12-27T01:13:40.328Z,4.20
2022-12-27T01:16:19.262Z,4.20
2022-12-27T01:18:46.374Z,4.10
2022-12-27T01:21:16.246Z,4.10
2022-12-27T01:23:43.959Z,4.00
2022-12-27T01:26:14.355Z,3.90
2022-12-27T01:28:41.147Z,3.90
2022-12-27T01:31:10.986Z,3.90
2022-12-27T01:33:38.176Z,3.80
2022-12-27T01:36:25.299Z,3.70
2022-12-27T01:38:53.463Z,3.70
2022-12-27T01:41:41.971Z,3.60
2022-12-27T01:44:39.836Z,3.60
2022-12-27T01:47:21.112Z,3.50
2022-12-27T01:50:09.701Z,3.40
2022-12-27T01:52:46.154Z,3.30
2022-12-27T01:55:28.562Z,3.30
2022-12-27T01:58:01.651Z,3.30
2022-12-27T02:00:28.560Z,3.20
2022-12-27T02:02:56.079Z,3.10
2022-12-27T02:05:25.036Z,3.10
2022-12-27T02:08:18.514Z,3.10
2022-12-27T02:10:46.246Z,3.00
2022-12-27T02:13:14.502Z,3.00
2022-12-27T02:15:41.281Z,2.90
2022-12-27T02:18:08.260Z,2.80
2022-12-27T02:21:05.736Z,2.80
2022-12-27T02:24:03.971Z,2.70
2022-12-27T02:26:48.777Z,2.70
2022-12-27T02:29:30.560Z,2.60
2022-12-27T02:32:03.458Z,2.50
2022-12-27T02:34:41.107Z,2.50
2022-12-27T02:37:12.510Z,2.50
2022-12-27T02:39:43.717Z,2.40
2022-12-27T02:42:31.397Z,2.40
2022-12-27T02:45:16.853Z,2.30
2022-12-27T02:48:04.812Z,2.30
2022-12-27T02:51:12.579Z,2.20
2022-12-27T02:53:49.565Z,2.20
2022-12-27T02:57:05.670Z,2.10
2022-12-27T03:00:02.947Z,2.00
2022-12-27T03:03:04.095Z,2.00
2022-12-27T03:06:09.333Z,2.00
2022-12-27T03:08:55.817Z,1.90
2022-12-27T03:11:44.051Z,1.80
2022-12-27T03:14:43.968Z,1.80
2022-12-27T03:17:21.181Z,1.80
2022-12-27T03:20:09.884Z,1.70
2022-12-27T03:22:57.909Z,1.70
2022-12-27T03:25:28.663Z,1.60
2022-12-27T03:28:25.532Z,1.60
2022-12-27T03:31:22.520Z,1.60
2022-12-27T03:33:51.642Z,1.50
2022-12-27T03:36:42.097Z,1.70
2022-12-27T03:39:14.700Z,1.60
2022-12-27T03:42:06.874Z,1.70
2022-12-27T03:44:33.770Z,1.70
2022-12-27T03:47:22.230Z,1.70
2022-12-27T03:49:55.986Z,1.60
2022-12-27T03:52:36.210Z,1.70
2022-12-27T03:55:04.045Z,1.70
2022-12-27T03:57:31.061Z,1.60
2022-12-27T03:59:57.785Z,1.60
2022-12-27T04:02:24.702Z,1.60
2022-12-27T04:04:51.694Z,1.50
2022-12-27T04:07:18.483Z,1.50
2022-12-27T04:10:03.829Z,1.50
2022-12-27T04:12:49.290Z,1.50
2022-12-27T04:15:34.878Z,1.50
2022-12-27T04:18:20.334Z,1.50
2022-12-27T04:21:05.911Z,1.40
2022-12-27T04:23:51.458Z,1.40
2022-12-27T04:26:36.887Z,1.30
2022-12-27T04:29:22.192Z,1.30
2022-12-27T04:32:07.581Z,1.30
2022-12-27T04:34:43.631Z,1.30
2022-12-27T04:37:16.980Z,1.30
2022-12-27T04:40:03.757Z,1.30
2022-12-27T04:42:49.467Z,1.30
2022-12-27T04:45:35.003Z,1.30
2022-12-27T04:48:20.600Z,1.20
2022-12-27T04:51:06.126Z,1.20
2022-12-27T04:53:51.545Z,1.20
2022-12-27T04:56:18.268Z,1.20
2022-12-27T04:59:05.023Z,1.20
2022-12-27T05:01:50.564Z,1.20
2022-12-27T05:04:17.543Z,1.20
2022-12-27T05:06:44.368Z,1.20
2022-12-27T05:09:29.646Z,1.10
2022-12-27T05:12:19.607Z,1.10
2022-12-27T05:14:46.498Z,1.00
2022-12-27T05:17:13.432Z,1.00
2022-12-27T05:19:40.218Z,1.00
2022-12-27T05:22:25.844Z,1.00
2022-12-27T05:25:11.300Z,0.90
2022-12-27T05:27:38.144Z,0.90
2022-12-27T05:30:05.404Z,0.90
2022-12-27T05:32:32.088Z,0.90
2022-12-27T05:34:58.855Z,0.90
2022-12-27T05:37:25.590Z,0.90
2022-12-27T05:39:52.281Z,0.80
2022-12-27T05:42:19.021Z,0.80
2022-12-27T05:44:45.824Z,0.80
2022-12-27T05:47:12.575Z,0.80
2022-12-27T05:49:39.568Z,0.80
2022-12-27T05:52:06.281Z,0.70
2022-12-27T05:54:33.055Z,0.70
2022-12-27T05:56:59.770Z,0.70
2022-12-27T05:59:26.538Z,0.70
2022-12-27T06:01:53.387Z,0.60
2022-12-27T06:04:20.236Z,0.60
2022-12-27T06:06:46.977Z,0.60
2022-12-27T06:09:13.978Z,0.70
2022-12-27T06:11:40.761Z,0.60
2022-12-27T06:14:07.527Z,0.60
2022-12-27T06:16:34.356Z,0.50
2022-12-27T06:19:01.215Z,0.60
2022-12-27T06:21:28.059Z,0.60
2022-12-27T06:23:54.803Z,0.70
2022-12-27T06:26:24.366Z,0.60
2022-12-27T06:28:51.754Z,0.60
2022-12-27T06:31:19.850Z,0.60
2022-12-27T06:33:47.715Z,0.60
2022-12-27T06:36:16.960Z,0.70
2022-12-27T06:38:44.120Z,0.60
2022-12-27T06:41:13.259Z,0.60
2022-12-27T06:43:41.072Z,0.60
2022-12-27T06:46:16.813Z,0.60
2022-12-27T06:48:44.656Z,0.60
2022-12-27T06:51:13.475Z,0.60
2022-12-27T06:53:40.562Z,0.50
2022-12-27T06:56:10.105Z,0.50
2022-12-27T06:58:37.241Z,0.50
2022-12-27T07:01:25.434Z,0.50
2022-12-27T07:03:54.755Z,0.30
2022-12-27T07:06:22.893Z,0.30
2022-12-27T07:08:50.967Z,0.30
2022-12-27T07:11:18.748Z,0.20
2022-12-27T07:13:51.388Z,0.20
2022-12-27T07:16:24.358Z,0.20
2022-12-27T07:18:51.855Z,0.10
2022-12-27T07:21:21.235Z,0.00
2022-12-27T07:23:48.365Z,0.00
2022-12-27T07:26:23.010Z,-0.20
2022-12-27T07:28:52.867Z,-0.30
2022-12-27T07:31:23.115Z,-0.30
2022-12-27T07:33:50.360Z,-0.40
2022-12-27T07:36:19.886Z,-0.40
2022-12-27T07:38:46.992Z,-0.40
2022-12-27T07:41:14.820Z,-0.50
2022-12-27T07:43:41.643Z,-0.40
2022-12-27T07:46:17.975Z,-0.50
2022-12-27T07:48:45.649Z,-0.40
2022-12-27T07:51:13.335Z,-0.40
2022-12-27T07:53:40.171Z,-0.40
2022-12-27T07:56:16.706Z,-0.50
2022-12-27T07:58:47.465Z,-0.40
2022-12-27T08:01:15.939Z,-0.50
2022-12-27T08:03:43.144Z,-0.50
2022-12-27T08:06:33.813Z,-0.50
2022-12-27T08:09:05.105Z,-0.50
2022-12-27T08:11:31.854Z,-0.40
2022-12-27T08:13:58.670Z,-0.40
2022-12-27T08:16:26.698Z,-0.30
2022-12-27T08:18:53.629Z,-0.30
2022-12-27T08:21:20.629Z,-0.20
2022-12-27T08:23:47.485Z,-0.20
2022-12-27T08:26:14.581Z,-0.10
2022-12-27T08:28:41.711Z,-0.10
2022-12-27T08:31:12.571Z,0.00
2022-12-27T08:33:41.683Z,0.00
2022-12-27T08:36:36.724Z,0.00
2022-12-27T08:38:57.776Z,0.00
2022-12-27T08:41:24.586Z,0.00
2022-12-27T08:43:51.331Z,0.00
2022-12-27T08:46:19.748Z,0.00
2022-12-27T08:48:50.393Z,0.10
2022-12-27T08:51:28.396Z,0.00
2022-12-27T08:53:58.447Z,0.10
2022-12-27T08:56:25.255Z,0.10
2022-12-27T08:58:52.043Z,0.10
2022-12-27T09:01:19.314Z,0.20
2022-12-27T09:03:46.360Z,0.30
2022-12-27T09:06:19.749Z,0.40
2022-12-27T09:08:48.247Z,0.40
2022-12-27T09:11:19.415Z,0.70
2022-12-27T09:13:46.854Z,0.80
2022-12-27T09:16:16.469Z,0.80
2022-12-27T09:18:43.812Z,0.80
2022-12-27T09:21:12.972Z,0.80
2022-12-27T09:23:40.781Z,0.80
2022-12-27T09:26:10.273Z,0.90
2022-12-27T09:28:37.306Z,1.00
2022-12-27T09:31:04.531Z,1.00
2022-12-27T09:33:32.052Z,1.10
2022-12-27T09:36:04.353Z,1.10
2022-12-27T09:38:31.512Z,1.30
2022-12-27T09:41:01.179Z,1.40
2022-12-27T09:43:44.219Z,1.50
2022-12-27T09:46:23.204Z,1.70
2022-12-27T09:48:51.346Z,1.90
2022-12-27T09:51:35.256Z,2.10
2022-12-27T09:54:11.852Z,2.10
2022-12-27T09:57:09.663Z,2.20
2022-12-27T09:59:42.171Z,2.50
2022-12-27T10:02:25.684Z,2.70
2022-12-27T10:05:19.840Z,3.00
2022-12-27T10:08:05.375Z,3.40
2022-12-27T10:11:08.330Z,3.70
2022-12-27T10:13:54.402Z,4.10
2022-12-27T10:16:54.862Z,4.30
2022-12-27T10:19:41.182Z,4.60
2022-12-27T10:22:35.252Z,5.10
2022-12-27T10:25:11.141Z,5.10
2022-12-27T10:27:39.217Z,5.30
2022-12-27T10:30:13.162Z,5.40
2022-12-27T10:32:39.938Z,5.40
2022-12-27T10:35:07.241Z,5.70
2022-12-27T10:37:34.180Z,5.90
2022-12-27T10:40:11.413Z,6.10
2022-12-27T10:42:42.657Z,6.10
2022-12-27T10:45:26.757Z,6.10
2022-12-27T10:47:55.569Z,6.10
2022-12-27T10:50:24.637Z,6.30
2022-12-27T10:52:57.323Z,6.30
2022-12-27T10:55:50.633Z,6.30
2022-12-27T10:58:40.538Z,6.50
2022-12-27T11:01:18.848Z,6.50
2022-12-27T11:03:45.847Z,6.80
2022-12-27T11:06:24.922Z,7.10
2022-12-27T11:08:54.652Z,6.90
2022-12-27T11:11:24.029Z,7.00
2022-12-27T11:13:51.608Z,6.80
2022-12-27T11:16:28.229Z,6.60
2022-12-27T11:18:58.353Z,6.80
2022-12-27T11:21:28.123Z,6.70
2022-12-27T11:24:02.716Z,6.90
2022-12-27T11:27:02.401Z,7.10
2022-12-27T11:29:32.191Z,7.70
2022-12-27T11:32:06.696Z,7.20
2022-12-27T11:34:37.614Z,7.00
2022-12-27T11:37:17.806Z,6.90
2022-12-27T11:40:14.814Z,6.80
2022-12-27T11:42:46.311Z,6.90
2022-12-27T11:45:18.792Z,6.90
2022-12-27T11:47:59.136Z,7.40
2022-12-27T11:50:28.885Z,7.60
2022-12-27T11:53:07.293Z,7.60
2022-12-27T11:55:52.840Z,7.90
2022-12-27T11:58:56.721Z,7.70
2022-12-27T12:01:45.031Z,7.60
2022-12-27T12:04:29.595Z,7.40
2022-12-27T12:07:02.611Z,7.40
2022-12-27T12:09:41.325Z,7.30
2022-12-27T12:12:17.398Z,7.10
2022-12-27T12:15:06.969Z,7.10
2022-12-27T12:18:06.825Z,6.90
2022-12-27T12:20:48.781Z,7.20
2022-12-27T12:23:44.236Z,7.40
2022-12-27T12:26:17.392Z,7.10
2022-12-27T12:29:13.540Z,6.80
2022-12-27T12:32:14.365Z,6.90
2022-12-27T12:34:44.797Z,6.80
2022-12-27T12:37:34.548Z,7.10
2022-12-27T12:40:21.884Z,6.90
2022-12-27T12:42:51.662Z,7.30
2022-12-27T12:45:43.375Z,7.50
2022-12-27T12:48:37.503Z,7.50
2022-12-27T12:51:10.152Z,7.50
2022-12-27T12:53:36.849Z,7.60
2022-12-27T12:56:22.413Z,7.50
2022-12-27T12:59:07.756Z,7.40
2022-12-27T13:01:51.201Z,7.40
2022-12-27T13:05:00.440Z,7.20
2022-12-27T13:07:45.652Z,6.70
2022-12-27T13:10:46.037Z,6.60
2022-12-27T13:13:40.023Z,6.40
2022-12-27T13:16:12.562Z,6.50
2022-12-27T13:19:01.907Z,6.60
2022-12-27T13:22:03.225Z,6.60
2022-12-27T13:25:03.138Z,6.60
2022-12-27T13:27:40.738Z,6.40
2022-12-27T13:30:20.227Z,6.30
2022-12-27T13:33:24.640Z,6.40
2022-12-27T13:36:16.784Z,6.50
2022-12-27T13:39:19.821Z,6.40
2022-12-27T13:42:13.524Z,6.30
2022-12-27T13:44:46.310Z,6.20
2022-12-27T13:47:54.513Z,6.20
2022-12-27T13:50:41.200Z,6.30
2022-12-27T13:53:46.059Z,6.20
2022-12-27T13:56:54.449Z,6.10
2022-12-27T13:59:46.927Z,6.10
2022-12-27T14:02:32.090Z,6.00
2022-12-27T14:05:02.119Z,6.00
2022-12-27T14:07:44.192Z,5.90
2022-12-27T14:10:36.193Z,5.90
2022-12-27T14:13:06.016Z,5.80
2022-12-27T14:16:03.447Z,6.10
2022-12-27T14:18:30.242Z,6.10
2022-12-27T14:21:25.895Z,6.00
2022-12-27T14:24:29.555Z,5.80
2022-12-27T14:27:20.476Z,5.70
2022-12-27T14:30:50.300Z,5.60
2022-12-27T14:33:34.780Z,5.40
2022-12-27T14:36:04.806Z,5.30
2022-12-27T14:38:46.671Z,5.20
2022-12-27T14:41:19.566Z,5.20
2022-12-27T14:44:21.281Z,5.10
2022-12-27T14:46:48.013Z,5.10
2022-12-27T14:49:33.291Z,5.00
2022-12-27T14:52:24.599Z,5.00
2022-12-27T14:55:00.487Z,4.90
2022-12-27T14:58:03.730Z,4.90
2022-12-27T15:00:50.967Z,4.80
2022-12-27T15:03:34.734Z,4.60
2022-12-27T15:06:38.036Z,4.50
2022-12-27T15:09:31.219Z,4.40
2022-12-27T15:12:15.417Z,4.30
2022-12-27T15:14:57.244Z,4.20
2022-12-27T15:17:50.476Z,4.10
2022-12-27T15:20:40.997Z,4.00
2022-12-27T15:23:38.136Z,3.90
2022-12-27T15:26:20.631Z,3.80
2022-12-27T15:28:58.740Z,3.70
2022-12-27T15:31:37.429Z,3.50
2022-12-27T15:34:20.390Z,3.40
2022-12-27T15:36:49.612Z,3.40
2022-12-27T15:39:34.544Z,3.30
2022-12-27T15:42:19.226Z,3.20
2022-12-27T15:44:45.940Z,3.10
2022-12-27T15:47:30.006Z,3.00
2022-12-27T15:50:27.561Z,3.00
2022-12-27T15:53:07.945Z,2.80
2022-12-27T15:56:05.614Z,2.60
2022-12-27T15:58:32.894Z,2.60
2022-12-27T16:01:25.279Z,2.60
2022-12-27T16:03:53.623Z,2.50
2022-12-27T16:06:48.748Z,2.40
2022-12-27T16:09:24.176Z,2.30
2022-12-27T16:11:59.609Z,2.30
2022-12-27T16:14:36.051Z,2.30
2022-12-27T16:17:43.025Z,2.20
2022-12-27T16:20:17.999Z,2.20
2022-12-27T16:23:07.891Z,2.10
2022-12-27T16:25:40.305Z,2.10
2022-12-27T16:28:23.834Z,2.00
2022-12-27T16:30:53.866Z,2.00
2022-12-27T16:33:26.555Z,2.00
2022-12-27T16:36:11.810Z,2.00
2022-12-27T16:38:57.246Z,1.90
2022-12-27T16:41:42.135Z,1.90
2022-12-27T16:44:26.528Z,1.80
2022-12-27T16:47:25.729Z,1.70
2022-12-27T16:49:55.642Z,1.70
2022-12-27T16:52:25.288Z,1.70
2022-12-27T16:55:02.029Z,1.70
2022-12-27T16:57:39.580Z,1.60
2022-12-27T17:00:23.250Z,1.50
2022-12-27T17:02:50.151Z,1.50
2022-12-27T17:05:16.897Z,1.50
2022-12-27T17:07:51.577Z,1.50
2022-12-27T17:10:35.135Z,1.40
2022-12-27T17:13:22.789Z,1.30
2022-12-27T17:15:54.158Z,1.30
2022-12-27T17:18:30.228Z,1.30
2022-12-27T17:21:02.307Z,1.30
2022-12-27T17:23:29.623Z,1.20
2022-12-27T17:26:15.349Z,1.20
2022-12-27T17:28:59.296Z,1.20
2022-12-27T17:31:45.846Z,1.20
2022-12-27T17:34:35.180Z,1.20
2022-12-27T17:37:12.520Z,1.20
2022-12-27T17:40:00.903Z,1.20
2022-12-27T17:43:19.589Z,1.20
2022-12-27T17:45:54.321Z,1.20
2022-12-27T17:48:32.037Z,1.10
2022-12-27T17:51:07.379Z,1.00
2022-12-27T17:53:52.683Z,0.90
2022-12-27T17:56:40.700Z,0.90
2022-12-27T17:59:09.194Z,0.90
2022-12-27T18:01:49.657Z,0.80
2022-12-27T18:04:24.648Z,0.70
2022-12-27T18:07:00.283Z,0.60
2022-12-27T18:09:51.104Z,0.60
2022-12-27T18:12:24.659Z,0.60
2022-12-27T18:15:02.805Z,0.50
2022-12-27T18:18:00.060Z,0.30
2022-12-27T18:20:27.101Z,0.30
2022-12-27T18:23:02.730Z,0.30
2022-12-27T18:25:52.540Z,0.20
2022-12-27T18:28:33.685Z,0.20
2022-12-27T18:31:14.814Z,0.10
2022-12-27T18:33:58.368Z,0.10
2022-12-27T18:36:37.204Z,0.00
2022-12-27T18:39:25.597Z,0.00
2022-12-27T18:41:54.230Z,-0.10
2022-12-27T18:44:27.924Z,-0.10
2022-12-27T18:46:59.024Z,-0.10
2022-12-27T18:49:31.647Z,-0.10
2022-12-27T18:51:58.998Z,-0.20
2022-12-27T18:54:32.540Z,-0.30
2022-12-27T18:57:01.925Z,-0.20
2022-12-27T18:59:35.850Z,-0.30
2022-12-27T19:02:23.795Z,-0.40
2022-12-27T19:05:13.441Z,-0.40
2022-12-27T19:07:40.440Z,-0.40
2022-12-27T19:10:17.201Z,-0.50
2022-12-27T19:12:45.186Z,-0.50
2022-12-27T19:15:16.799Z,-0.60
2022-12-27T19:17:47.770Z,-0.70
2022-12-27T19:20:50.472Z,-0.70
2022-12-27T19:23:28.568Z,-0.70
2022-12-27T19:26:20.536Z,-0.70
2022-12-27T19:29:13.109Z,-0.70
2022-12-27T19:31:43.553Z,-0.80
2022-12-27T19:34:16.221Z,-0.80
2022-12-27T19:36:45.200Z,-0.90
2022-12-27T19:39:22.086Z,-0.90
2022-12-27T19:41:49.348Z,-0.90
2022-12-27T19:44:16.363Z,-0.90
2022-12-27T19:46:43.250Z,-1.00
2022-12-27T19:51:58.042Z,-1.00
2022-12-27T19:54:25.297Z,-1.10
2022-12-27T19:56:52.116Z,-1.10
2022-12-27T19:59:21.193Z,-1.10
2022-12-27T20:01:49.562Z,-1.10
2022-12-27T20:04:17.647Z,-1.20
2022-12-27T20:06:47.643Z,-1.20
2022-12-27T20:09:17.940Z,-1.20
2022-12-27T20:11:45.421Z,-1.30
2022-12-27T20:14:14.616Z,-1.30
2022-12-27T20:16:41.543Z,-1.30
2022-12-27T20:19:11.714Z,-1.30
2022-12-27T20:21:39.748Z,-1.40
2022-12-27T20:24:07.049Z,-1.40
2022-12-27T20:26:33.794Z,-1.40
2022-12-27T20:29:00.611Z,-1.50
2022-12-27T20:31:27.475Z,-1.50
2022-12-27T20:33:55.585Z,-1.50
2022-12-27T20:36:23.262Z,-1.50
2022-12-27T20:38:50.107Z,-1.50
2022-12-27T20:41:20.022Z,-1.60
2022-12-27T20:43:47.236Z,-1.60
2022-12-27T20:46:16.816Z,-1.70
2022-12-27T20:48:45.622Z,-1.60
2022-12-27T20:51:17.705Z,-1.70
2022-12-27T20:53:46.684Z,-1.70
2022-12-27T20:56:14.085Z,-1.70
2022-12-27T20:58:41.239Z,-1.80
2022-12-27T21:01:10.154Z,-1.80
2022-12-27T21:03:38.592Z,-1.80
2022-12-27T21:06:10.689Z,-1.80
2022-12-27T21:08:45.413Z,-1.90
2022-12-27T21:11:19.205Z,-1.90
2022-12-27T21:13:47.726Z,-1.90
2022-12-27T21:16:23.913Z,-1.90
2022-12-27T21:18:50.829Z,-2.00
2022-12-27T21:21:21.529Z,-2.00
2022-12-27T21:23:49.577Z,-2.10
2022-12-27T21:26:19.671Z,-2.00
2022-12-27T21:28:46.937Z,-2.00
2022-12-27T21:31:14.804Z,-2.00
2022-12-27T21:33:42.283Z,-2.00
2022-12-27T21:36:24.722Z,-2.00
2022-12-27T21:38:52.240Z,-2.10
2022-12-27T21:41:24.201Z,-2.10
2022-12-27T21:43:51.690Z,-2.10
2022-12-27T21:46:21.207Z,-2.10
2022-12-27T21:48:49.146Z,-2.10
2022-12-27T21:51:18.186Z,-2.10
2022-12-27T21:53:45.187Z,-2.20
2022-12-27T21:56:13.274Z,-2.20
2022-12-27T21:58:41.294Z,-2.30
2022-12-27T22:01:12.014Z,-2.30
2022-12-27T22:03:40.920Z,-2.30
2022-12-27T22:06:15.432Z,-2.30
2022-12-27T22:08:43.305Z,-2.30
2022-12-27T22:11:10.707Z,-2.40
2022-12-27T22:13:37.990Z,-2.40
2022-12-27T22:16:06.935Z,-2.40
2022-12-27T22:18:38.004Z,-2.40
2022-12-27T22:21:06.851Z,-2.50
2022-12-27T22:23:37.122Z,-2.50
2022-12-27T22:26:05.312Z,-2.50
2022-12-27T22:28:32.147Z,-2.50
2022-12-27T22:30:58.958Z,-2.50
2022-12-27T22:33:25.729Z,-2.60
2022-12-27T22:35:52.528Z,-2.60
2022-12-27T22:38:19.311Z,-2.70
2022-12-27T22:40:47.265Z,-2.70
2022-12-27T22:43:14.417Z,-2.60
2022-12-27T22:45:42.612Z,-2.70
2022-12-27T22:48:09.551Z,-2.70
2022-12-27T22:50:38.033Z,-2.70
2022-12-27T22:53:04.856Z,-2.70
2022-12-27T22:55:31.705Z,-2.70
2022-12-27T22:57:58.496Z,-2.70
2022-12-27T23:00:25.285Z,-2.80
2022-12-27T23:02:52.090Z,-2.80
2022-12-27T23:05:18.845Z,-2.80
2022-12-27T23:08:03.563Z,-2.80
2022-12-27T23:10:32.385Z,-2.80
2022-12-27T23:12:59.220Z,-2.80
2022-12-27T23:15:25.955Z,-2.90
2022-12-27T23:17:53.055Z,-2.90
2022-12-27T23:20:20.013Z,-2.90
2022-12-27T23:22:46.758Z,-2.90
2022-12-27T23:25:13.604Z,-3.00
2022-12-27T23:27:40.437Z,-3.00
2022-12-27T23:30:07.730Z,-3.00
2022-12-27T23:32:34.538Z,-3.00
2022-12-27T23:35:01.311Z,-3.00
2022-12-27T23:37:28.112Z,-3.10
2022-12-27T23:39:54.882Z,-3.10
2022-12-27T23:42:21.631Z,-3.10
2022-12-27T23:44:48.412Z,-3.10
2022-12-27T23:47:15.289Z,-3.00
2022-12-27T23:49:42.071Z,-3.10
2022-12-27T23:52:08.907Z,-3.10
2022-12-27T23:54:35.609Z,-3.10
2022-12-27T23:57:20.645Z,-3.20
2022-12-27T23:59:49.459Z,-3.10
